createdAt,value
2019-02-23T00:00:44.807Z,104129.00
2019-02-23T00:03:14.160Z,104130.00
2019-02-23T00:05:43.531Z,104123.00
2019-02-23T00:08:12.923Z,104118.00
2019-02-23T00:10:42.284Z,104121.00
2019-02-23T00:13:11.638Z,104113.00
2019-02-23T00:15:41.027Z,104113.00
2019-02-23T00:18:12.602Z,104129.00
2019-02-23T00:20:41.751Z,104128.00
2019-02-23T00:23:11.133Z,104142.00
2019-02-23T00:25:40.489Z,104142.00
2019-02-23T00:28:09.845Z,104136.00
2019-02-23T00:30:39.499Z,104145.00
2019-02-23T00:33:08.875Z,104143.00
2019-02-23T00:35:38.268Z,104139.00
2019-02-23T00:38:07.654Z,104130.00
2019-02-23T00:40:37.019Z,104131.00
2019-02-23T00:43:06.439Z,104125.00
2019-02-23T00:45:35.762Z,104116.00
2019-02-23T00:48:05.111Z,104112.00
2019-02-23T00:50:34.470Z,104114.00
2019-02-23T00:53:03.873Z,104112.00
2019-02-23T00:55:34.517Z,104127.00
2019-02-23T00:58:03.874Z,104131.00
2019-02-23T01:00:33.249Z,104116.00
2019-02-23T01:03:02.611Z,104114.00
2019-02-23T01:05:31.969Z,104125.00
2019-02-23T01:08:01.370Z,104126.00
2019-02-23T01:10:30.730Z,104132.00
2019-02-23T01:13:00.083Z,104111.00
2019-02-23T01:15:29.777Z,104096.00
2019-02-23T01:17:58.846Z,104100.00
2019-02-23T01:20:27.902Z,104087.00
2019-02-23T01:22:57.284Z,104091.00
2019-02-23T01:25:26.721Z,104089.00
2019-02-23T01:27:56.076Z,104074.00
2019-02-23T01:30:25.443Z,104065.00
2019-02-23T01:32:54.799Z,104078.00
2019-02-23T01:35:24.165Z,104064.00
2019-02-23T01:37:53.963Z,104064.00
2019-02-23T01:40:23.326Z,104048.00
2019-02-23T01:42:53.969Z,104033.00
2019-02-23T01:45:23.339Z,104051.00
2019-02-23T01:47:52.696Z,104044.00
2019-02-23T01:50:22.050Z,104042.00
2019-02-23T01:52:51.414Z,104047.00
2019-02-23T01:55:20.767Z,104054.00
2019-02-23T01:57:50.309Z,104052.00
2019-02-23T02:00:20.140Z,104055.00
2019-02-23T02:02:49.496Z,104044.00
2019-02-23T02:05:18.856Z,104041.00
2019-02-23T02:07:48.296Z,104045.00
2019-02-23T02:10:17.950Z,104044.00
2019-02-23T02:12:47.034Z,104029.00
2019-02-23T02:15:16.745Z,104034.00
2019-02-23T02:17:46.103Z,104055.00
2019-02-23T02:20:15.526Z,104010.00
2019-02-23T02:22:44.923Z,104039.00
2019-02-23T02:25:14.285Z,104035.00
2019-02-23T02:27:43.652Z,104025.00
2019-02-23T02:30:13.104Z,104013.00
2019-02-23T02:32:42.455Z,104016.00
2019-02-23T02:35:12.178Z,104027.00
2019-02-23T02:37:41.280Z,104035.00
2019-02-23T02:40:10.952Z,104037.00
2019-02-23T02:42:40.321Z,104027.00
2019-02-23T02:45:11.570Z,104026.00
2019-02-23T02:47:41.218Z,104020.00
2019-02-23T02:50:23.306Z,104014.00
2019-02-23T02:52:42.417Z,104026.00
2019-02-23T02:55:11.779Z,104014.00
2019-02-23T02:57:41.131Z,104000.00
2019-02-23T03:00:12.369Z,104000.00
2019-02-23T03:02:41.685Z,103993.00
2019-02-23T03:05:11.327Z,103990.00
2019-02-23T03:07:41.532Z,103972.00
2019-02-23T03:10:10.969Z,103979.00
2019-02-23T03:12:40.329Z,103979.00
2019-02-23T03:15:09.768Z,103979.00
2019-02-23T03:17:39.136Z,103988.00
2019-02-23T03:20:09.804Z,103995.00
2019-02-23T03:22:39.207Z,103993.00
2019-02-23T03:25:09.448Z,103994.00
2019-02-23T03:27:39.126Z,104006.00
2019-02-23T03:30:11.825Z,104011.00
2019-02-23T03:32:41.178Z,104011.00
2019-02-23T03:35:10.543Z,104014.00
2019-02-23T03:37:40.150Z,104008.00
2019-02-23T03:40:10.150Z,104005.00
2019-02-23T03:42:39.579Z,104004.00
2019-02-23T03:45:09.394Z,103994.00
2019-02-23T03:47:38.833Z,104002.00
2019-02-23T03:50:08.766Z,104011.00
2019-02-23T03:52:38.129Z,104014.00
2019-02-23T03:55:07.886Z,104023.00
2019-02-23T03:57:37.287Z,104021.00
2019-02-23T04:00:10.845Z,104013.00
2019-02-23T04:02:40.715Z,104007.00
2019-02-23T04:05:10.161Z,104006.00
2019-02-23T04:07:39.537Z,104019.00
2019-02-23T04:10:09.530Z,103998.00
2019-02-23T04:12:38.888Z,104003.00
2019-02-23T04:15:11.463Z,103992.00
2019-02-23T04:17:40.837Z,104005.00
2019-02-23T04:20:10.205Z,104002.00
2019-02-23T04:22:39.879Z,104013.00
2019-02-23T04:25:09.930Z,104015.00
2019-02-23T04:27:39.324Z,104026.00
2019-02-23T04:30:10.034Z,104036.00
2019-02-23T04:32:39.685Z,104057.00
2019-02-23T04:35:09.173Z,104054.00
2019-02-23T04:37:38.556Z,104060.00
2019-02-23T04:40:08.208Z,104068.00
2019-02-23T04:42:37.521Z,104073.00
2019-02-23T04:45:09.197Z,104058.00
2019-02-23T04:47:38.563Z,104062.00
2019-02-23T04:50:11.134Z,104052.00
2019-02-23T04:52:40.481Z,104055.00
2019-02-23T04:55:10.824Z,104033.00
2019-02-23T04:57:40.190Z,104025.00
2019-02-23T05:00:15.515Z,104042.00
2019-02-23T05:02:44.874Z,104031.00
2019-02-23T05:05:14.582Z,104039.00
2019-02-23T05:07:43.949Z,104034.00
2019-02-23T05:10:13.391Z,104049.00
2019-02-23T05:12:42.743Z,104049.00
2019-02-23T05:15:12.183Z,104026.00
2019-02-23T05:17:41.548Z,104024.00
2019-02-23T05:20:11.138Z,104039.00
2019-02-23T05:22:41.003Z,104044.00
2019-02-23T05:25:10.366Z,104051.00
2019-02-23T05:27:39.553Z,104035.00
2019-02-23T05:30:12.636Z,104046.00
2019-02-23T05:32:41.996Z,104048.00
2019-02-23T05:35:13.835Z,104027.00
2019-02-23T05:37:43.774Z,104036.00
2019-02-23T05:40:13.207Z,104052.00
2019-02-23T05:42:42.506Z,104048.00
2019-02-23T05:45:12.467Z,104039.00
2019-02-23T05:47:41.835Z,104041.00
2019-02-23T05:50:11.196Z,104037.00
2019-02-23T05:52:40.574Z,104038.00
2019-02-23T05:55:09.940Z,104047.00
2019-02-23T05:57:39.329Z,104043.00
2019-02-23T06:00:13.784Z,104054.00
2019-02-23T06:02:45.182Z,104056.00
2019-02-23T06:05:14.177Z,104051.00
2019-02-23T06:07:44.861Z,104049.00
2019-02-23T06:10:14.165Z,104065.00
2019-02-23T06:12:43.520Z,104059.00
2019-02-23T06:15:13.583Z,104055.00
2019-02-23T06:17:42.941Z,104069.00
2019-02-23T06:20:12.309Z,104078.00
2019-02-23T06:22:43.666Z,104084.00
2019-02-23T06:25:13.044Z,104078.00
2019-02-23T06:27:42.402Z,104081.00
2019-02-23T06:30:13.683Z,104100.00
2019-02-23T06:32:43.051Z,104098.00
2019-02-23T06:35:12.422Z,104105.00
2019-02-23T06:37:41.816Z,104104.00
2019-02-23T06:40:13.477Z,104083.00
2019-02-23T06:42:42.827Z,104070.00
2019-02-23T06:45:13.067Z,104070.00
2019-02-23T06:47:42.369Z,104055.00
2019-02-23T06:50:11.736Z,104042.00
2019-02-23T06:52:41.104Z,104028.00
2019-02-23T06:55:10.460Z,104032.00
2019-02-23T06:57:39.839Z,104038.00
2019-02-23T07:00:15.870Z,104061.00
2019-02-23T07:02:45.372Z,104060.00
2019-02-23T07:05:17.086Z,104074.00
2019-02-23T07:07:46.794Z,104080.00
2019-02-23T07:10:17.354Z,104084.00
2019-02-23T07:12:46.731Z,104093.00
2019-02-23T07:15:16.093Z,104101.00
2019-02-23T07:17:45.458Z,104103.00
2019-02-23T07:20:14.817Z,104092.00
2019-02-23T07:22:44.694Z,104088.00
2019-02-23T07:25:14.063Z,104096.00
2019-02-23T07:27:43.441Z,104093.00
2019-02-23T07:30:16.439Z,104093.00
2019-02-23T07:32:45.737Z,104104.00
2019-02-23T07:35:17.907Z,104108.00
2019-02-23T07:37:47.278Z,104120.00
2019-02-23T07:40:17.213Z,104104.00
2019-02-23T07:42:46.524Z,104075.00
2019-02-23T07:45:18.462Z,104070.00
2019-02-23T07:47:47.788Z,104071.00
2019-02-23T07:50:17.780Z,104058.00
2019-02-23T07:52:47.090Z,104047.00
2019-02-23T07:55:16.529Z,104045.00
2019-02-23T07:57:45.905Z,104023.00
2019-02-23T08:00:15.826Z,104016.00
2019-02-23T08:02:45.183Z,104009.00
2019-02-23T08:05:14.585Z,104014.00
2019-02-23T08:07:43.938Z,104038.00
2019-02-23T08:10:14.142Z,104054.00
2019-02-23T08:12:44.611Z,104055.00
2019-02-23T08:15:14.137Z,104053.00
2019-02-23T08:17:43.486Z,104067.00
2019-02-23T08:20:14.186Z,104075.00
2019-02-23T08:22:43.881Z,104093.00
2019-02-23T08:25:15.257Z,104075.00
2019-02-23T08:27:51.037Z,104078.00
2019-02-23T08:30:22.759Z,104081.00
2019-02-23T08:32:52.130Z,104076.00
2019-02-23T08:35:21.492Z,104068.00
2019-02-23T08:37:51.162Z,104069.00
2019-02-23T08:40:20.521Z,104071.00
2019-02-23T08:42:49.882Z,104073.00
2019-02-23T08:45:19.339Z,104081.00
2019-02-23T08:47:48.711Z,104081.00
2019-02-23T08:50:18.123Z,104064.00
2019-02-23T08:52:49.462Z,104070.00
2019-02-23T08:55:18.590Z,104069.00
2019-02-23T08:57:47.990Z,104085.00
2019-02-23T09:00:19.745Z,104076.00
2019-02-23T09:02:49.126Z,104065.00
2019-02-23T09:05:18.894Z,104070.00
2019-02-23T09:07:48.269Z,104069.00
2019-02-23T09:10:17.370Z,104070.00
2019-02-23T09:12:46.689Z,104076.00
2019-02-23T09:15:16.403Z,104070.00
2019-02-23T09:17:45.777Z,104078.00
2019-02-23T09:20:15.140Z,104068.00
2019-02-23T09:22:44.716Z,104070.00
2019-02-23T09:25:13.820Z,104061.00
2019-02-23T09:27:43.140Z,104060.00
2019-02-23T09:30:14.728Z,104057.00
2019-02-23T09:32:44.156Z,104055.00
2019-02-23T09:35:13.199Z,104051.00
2019-02-23T09:37:42.511Z,104061.00
2019-02-23T09:40:15.747Z,104058.00
2019-02-23T09:42:45.108Z,104062.00
2019-02-23T09:45:15.279Z,104058.00
2019-02-23T09:47:44.642Z,104049.00
2019-02-23T09:50:14.009Z,104047.00
2019-02-23T09:52:43.378Z,104051.00
2019-02-23T09:55:13.060Z,104051.00
2019-02-23T09:57:42.423Z,104049.00
2019-02-23T10:00:14.205Z,104056.00
2019-02-23T10:02:43.565Z,104044.00
2019-02-23T10:05:12.670Z,104052.00
2019-02-23T10:07:42.362Z,104053.00
2019-02-23T10:10:12.843Z,104046.00
2019-02-23T10:12:42.200Z,104031.00
2019-02-23T10:15:12.320Z,104025.00
2019-02-23T10:17:42.198Z,104035.00
2019-02-23T10:20:14.433Z,104031.00
2019-02-23T10:22:44.215Z,104028.00
2019-02-23T10:25:14.448Z,104027.00
2019-02-23T10:27:43.881Z,104010.00
2019-02-23T10:30:16.275Z,104027.00
2019-02-23T10:32:45.632Z,104010.00
2019-02-23T10:35:18.515Z,104019.00
2019-02-23T10:37:48.221Z,104024.00
2019-02-23T10:40:17.580Z,104008.00
2019-02-23T10:42:46.938Z,104003.00
2019-02-23T10:45:16.383Z,104010.00
2019-02-23T10:47:45.752Z,103991.00
2019-02-23T10:50:16.363Z,104010.00
2019-02-23T10:52:45.485Z,104004.00
2019-02-23T10:55:15.924Z,103990.00
2019-02-23T10:57:45.299Z,103991.00
2019-02-23T11:00:19.351Z,103989.00
2019-02-23T11:02:48.744Z,103996.00
2019-02-23T11:05:18.812Z,103988.00
2019-02-23T11:07:48.191Z,103996.00
2019-02-23T11:10:18.104Z,103999.00
2019-02-23T11:12:47.470Z,103998.00
2019-02-23T11:15:18.707Z,103995.00
2019-02-23T11:17:48.062Z,103983.00
2019-02-23T11:20:18.295Z,103988.00
2019-02-23T11:22:47.700Z,103977.00
2019-02-23T11:25:17.213Z,103984.00
2019-02-23T11:27:46.575Z,103983.00
2019-02-23T11:30:17.005Z,103968.00
2019-02-23T11:32:46.360Z,103963.00
2019-02-23T11:35:17.910Z,103955.00
2019-02-23T12:25:48.144Z,103949.00
2019-02-23T12:28:17.513Z,103945.00
2019-02-23T12:30:46.889Z,103935.00
2019-02-23T12:33:16.268Z,103933.00
2019-02-23T12:35:45.666Z,103945.00
2019-02-23T12:38:15.034Z,103930.00
2019-02-23T12:40:44.430Z,103921.00
2019-02-23T12:43:13.800Z,103928.00
2019-02-23T12:45:43.444Z,103932.00
2019-02-23T12:48:12.818Z,103924.00
2019-02-23T12:50:42.203Z,103922.00
2019-02-23T12:53:11.581Z,103909.00
2019-02-23T12:55:40.965Z,103926.00
2019-02-23T12:58:10.334Z,103927.00
2019-02-23T13:00:39.703Z,103923.00
2019-02-23T13:03:09.273Z,103929.00
2019-02-23T13:05:38.652Z,103925.00
2019-02-23T13:08:08.090Z,103911.00
2019-02-23T13:10:37.486Z,103921.00
2019-02-23T13:13:26.343Z,103906.00
2019-02-23T13:16:18.500Z,103899.00
2019-02-23T13:19:31.305Z,103893.00
2019-02-23T13:22:10.837Z,103880.00
2019-02-23T13:25:03.068Z,103891.00
2019-02-23T13:27:46.065Z,103870.00
2019-02-23T13:30:41.302Z,103868.00
2019-02-23T13:33:40.974Z,103858.00
2019-02-23T13:36:43.472Z,103855.00
2019-02-23T13:39:26.851Z,103852.00
2019-02-23T13:42:09.626Z,103841.00
2019-02-23T13:44:57.363Z,103846.00
2019-02-23T13:47:53.902Z,103847.00
2019-02-23T13:50:47.841Z,103843.00
2019-02-23T13:54:08.193Z,103843.00
2019-02-23T13:56:51.382Z,103823.00
2019-02-23T13:59:31.017Z,103821.00
2019-02-23T14:02:45.296Z,103823.00
2019-02-23T14:05:49.777Z,103814.00
2019-02-23T14:08:31.910Z,103815.00
2019-02-23T14:11:33.098Z,103820.00
2019-02-23T14:14:28.189Z,103819.00
2019-02-23T14:17:29.423Z,103814.00
2019-02-23T14:20:18.255Z,103822.00
2019-02-23T14:23:24.032Z,103827.00
2019-02-23T14:25:58.031Z,103821.00
2019-02-23T14:28:38.054Z,103827.00
2019-02-23T14:31:53.530Z,103822.00
2019-02-23T14:34:57.858Z,103823.00
2019-02-23T14:37:39.996Z,103828.00
2019-02-23T14:40:47.704Z,103816.00
2019-02-23T14:43:33.076Z,103815.00
2019-02-23T14:46:15.614Z,103836.00
2019-02-23T14:49:12.579Z,103826.00
2019-02-23T14:52:13.020Z,103829.00
2019-02-23T14:55:05.206Z,103819.00
2019-02-23T14:58:12.838Z,103808.00
2019-02-23T15:01:15.721Z,103813.00
2019-02-23T15:04:09.137Z,103810.00
2019-02-23T15:07:06.265Z,103814.00
2019-02-23T15:10:00.762Z,103807.00
2019-02-23T15:12:58.149Z,103800.00
2019-02-23T15:15:43.771Z,103806.00
2019-02-23T15:18:38.815Z,103794.00
2019-02-23T15:21:30.551Z,103788.00
2019-02-23T15:24:28.717Z,103786.00
2019-02-23T15:27:17.289Z,103782.00
2019-02-23T15:29:53.889Z,103786.00
2019-02-23T15:33:11.829Z,103791.00
2019-02-23T15:36:00.751Z,103790.00
2019-02-23T15:38:56.193Z,103795.00
2019-02-23T15:41:57.694Z,103782.00
2019-02-23T15:44:34.714Z,103765.00
2019-02-23T15:47:28.840Z,103770.00
2019-02-23T15:49:58.251Z,103788.00
2019-02-23T15:52:27.574Z,103792.00
2019-02-23T15:54:56.955Z,103791.00
2019-02-23T15:57:26.360Z,103785.00
2019-02-23T15:59:55.700Z,103805.00
2019-02-23T16:02:25.487Z,103794.00
2019-02-23T16:04:54.850Z,103804.00
2019-02-23T16:07:24.221Z,103798.00
2019-02-23T16:09:53.607Z,103789.00
2019-02-23T16:12:22.982Z,103795.00
2019-02-23T16:14:52.330Z,103791.00
2019-02-23T16:17:21.723Z,103792.00
2019-02-23T16:19:54.263Z,103785.00
2019-02-23T16:22:23.643Z,103795.00
2019-02-23T16:24:53.683Z,103798.00
2019-02-23T16:27:23.069Z,103799.00
2019-02-23T16:29:52.448Z,103801.00
2019-02-23T16:32:21.826Z,103801.00
2019-02-23T16:34:52.380Z,103793.00
2019-02-23T16:37:21.750Z,103796.00
2019-02-23T16:39:51.170Z,103794.00
2019-02-23T16:42:20.566Z,103799.00
2019-02-23T16:44:49.931Z,103799.00
2019-02-23T16:47:19.658Z,103801.00
2019-02-23T16:49:49.015Z,103789.00
2019-02-23T16:52:18.495Z,103793.00
2019-02-23T16:54:47.865Z,103794.00
2019-02-23T16:57:17.653Z,103796.00
2019-02-23T16:59:47.120Z,103785.00
2019-02-23T17:02:16.471Z,103776.00
2019-02-23T17:04:53.418Z,103770.00
2019-02-23T17:07:17.247Z,103764.00
2019-02-23T17:09:47.180Z,103774.00
2019-02-23T17:12:16.538Z,103761.00
2019-02-23T17:14:45.910Z,103775.00
2019-02-23T17:17:15.284Z,103767.00
2019-02-23T17:19:44.772Z,103776.00
2019-02-23T17:22:14.199Z,103772.00
2019-02-23T17:24:43.589Z,103776.00
2019-02-23T17:27:13.080Z,103780.00
2019-02-23T17:29:42.736Z,103771.00
2019-02-23T17:32:12.505Z,103775.00
2019-02-23T17:34:41.871Z,103776.00
2019-02-23T17:37:12.500Z,103771.00
2019-02-23T17:39:42.136Z,103770.00
2019-02-23T17:42:11.509Z,103768.00
2019-02-23T17:44:40.878Z,103770.00
2019-02-23T17:47:10.266Z,103754.00
2019-02-23T17:49:39.650Z,103760.00
2019-02-23T17:52:09.023Z,103760.00
2019-02-23T17:54:38.762Z,103748.00
2019-02-23T17:57:08.138Z,103745.00
2019-02-23T17:59:37.503Z,103745.00
2019-02-23T18:02:06.879Z,103746.00
2019-02-23T18:04:36.249Z,103756.00
2019-02-23T18:07:05.610Z,103750.00
2019-02-23T18:09:34.989Z,103744.00
2019-02-23T18:12:04.358Z,103755.00
2019-02-23T18:14:33.727Z,103749.00
2019-02-23T18:17:03.477Z,103753.00
2019-02-23T18:19:32.846Z,103743.00
2019-02-23T18:22:02.227Z,103736.00
2019-02-23T18:24:31.624Z,103744.00
2019-02-23T18:27:00.978Z,103734.00
2019-02-23T18:29:30.341Z,103746.00
2019-02-23T18:31:59.729Z,103749.00
2019-02-23T18:34:29.104Z,103748.00
2019-02-23T18:36:58.473Z,103747.00
2019-02-23T18:39:28.656Z,103744.00
2019-02-23T18:41:58.034Z,103748.00
2019-02-23T18:44:27.396Z,103761.00
2019-02-23T18:46:56.775Z,103747.00
2019-02-23T18:49:26.138Z,103759.00
2019-02-23T18:51:55.503Z,103750.00
2019-02-23T18:54:24.879Z,103749.00
2019-02-23T18:56:54.268Z,103743.00
2019-02-23T18:59:23.656Z,103747.00
2019-02-23T19:01:53.458Z,103743.00
2019-02-23T19:04:22.819Z,103734.00
2019-02-23T19:06:52.193Z,103739.00
2019-02-23T19:09:21.571Z,103737.00
2019-02-23T19:11:50.948Z,103734.00
2019-02-23T19:14:20.329Z,103726.00
2019-02-23T19:16:49.712Z,103724.00
2019-02-23T19:19:19.078Z,103719.00
2019-02-23T19:21:48.733Z,103717.00
2019-02-23T19:24:18.480Z,103713.00
2019-02-23T19:26:47.861Z,103713.00
2019-02-23T19:29:17.222Z,103717.00
2019-02-23T19:31:46.605Z,103722.00
2019-02-23T19:34:15.963Z,103717.00
2019-02-23T19:36:45.349Z,103699.00
2019-02-23T19:39:16.196Z,103700.00
2019-02-23T19:41:46.691Z,103702.00
2019-02-23T19:44:16.055Z,103691.00
2019-02-23T19:46:50.269Z,103699.00
2019-02-23T19:49:19.642Z,103688.00
2019-02-23T19:51:49.101Z,103679.00
2019-02-23T19:54:18.502Z,103680.00
2019-02-23T19:56:47.872Z,103671.00
2019-02-23T19:59:17.234Z,103673.00
2019-02-23T20:01:46.623Z,103686.00
2019-02-23T20:04:15.984Z,103678.00
2019-02-23T20:06:45.350Z,103676.00
2019-02-23T20:09:15.048Z,103678.00
2019-02-23T20:11:44.401Z,103682.00
2019-02-23T20:14:13.766Z,103677.00
2019-02-23T20:16:43.160Z,103677.00
2019-02-23T20:19:12.538Z,103681.00
2019-02-23T20:21:41.904Z,103685.00
2019-02-23T20:24:11.288Z,103682.00
2019-02-23T20:26:42.177Z,103682.00
2019-02-23T20:29:11.698Z,103682.00
2019-02-23T20:31:41.474Z,103685.00
2019-02-23T20:34:10.856Z,103681.00
2019-02-23T20:36:40.216Z,103680.00
2019-02-23T20:39:09.827Z,103679.00
2019-02-23T20:41:39.197Z,103677.00
2019-02-23T20:44:09.727Z,103677.00
2019-02-23T20:46:39.140Z,103680.00
2019-02-23T20:49:08.508Z,103674.00
2019-02-23T20:51:37.877Z,103686.00
2019-02-23T20:54:07.608Z,103682.00
2019-02-23T20:56:36.976Z,103678.00
2019-02-23T20:59:06.340Z,103682.00
2019-02-23T21:01:35.717Z,103679.00
2019-02-23T21:04:05.093Z,103680.00
2019-02-23T21:06:34.469Z,103688.00
2019-02-23T21:09:03.921Z,103676.00
2019-02-23T21:11:33.306Z,103677.00
2019-02-23T21:14:02.671Z,103688.00
2019-02-23T21:16:32.383Z,103684.00
2019-02-23T21:19:01.739Z,103687.00
2019-02-23T21:21:31.104Z,103683.00
2019-02-23T21:24:00.488Z,103686.00
2019-02-23T21:26:29.863Z,103681.00
2019-02-23T21:28:59.230Z,103693.00
2019-02-23T21:31:28.959Z,103694.00
2019-02-23T21:33:58.328Z,103684.00
2019-02-23T21:36:27.696Z,103680.00
2019-02-23T21:38:57.408Z,103692.00
2019-02-23T21:41:26.777Z,103690.00
2019-02-23T21:43:56.151Z,103682.00
2019-02-23T21:46:26.018Z,103689.00
2019-02-23T21:48:55.397Z,103686.00
2019-02-23T21:51:24.776Z,103681.00
2019-02-23T21:53:54.173Z,103672.00
2019-02-23T21:56:23.739Z,103673.00
2019-02-23T21:58:54.552Z,103670.00
2019-02-23T22:01:23.969Z,103668.00
2019-02-23T22:03:53.322Z,103670.00
2019-02-23T22:06:22.712Z,103666.00
2019-02-23T22:08:52.073Z,103667.00
2019-02-23T22:11:21.472Z,103661.00
2019-02-23T22:13:50.848Z,103664.00
2019-02-23T22:16:20.222Z,103660.00
2019-02-23T22:18:49.644Z,103666.00
2019-02-23T22:21:19.125Z,103667.00
2019-02-23T22:23:48.820Z,103660.00
2019-02-23T22:26:18.262Z,103664.00
2019-02-23T22:28:47.642Z,103667.00
2019-02-23T22:31:17.013Z,103655.00
2019-02-23T22:33:46.470Z,103654.00
2019-02-23T22:36:15.831Z,103651.00
2019-02-23T22:38:45.207Z,103646.00
2019-02-23T22:41:14.586Z,103656.00
2019-02-23T22:43:43.950Z,103656.00
2019-02-23T22:46:13.376Z,103647.00
2019-02-23T22:48:43.647Z,103647.00
2019-02-23T22:51:13.020Z,103650.00
2019-02-23T22:53:42.400Z,103646.00
2019-02-23T22:56:11.771Z,103644.00
2019-02-23T22:58:41.157Z,103639.00
2019-02-23T23:01:11.278Z,103641.00
2019-02-23T23:03:40.812Z,103642.00
2019-02-23T23:06:10.188Z,103644.00
2019-02-23T23:08:39.598Z,103653.00
2019-02-23T23:11:09.042Z,103642.00
2019-02-23T23:13:38.425Z,103642.00
2019-02-23T23:16:07.826Z,103636.00
2019-02-23T23:18:37.186Z,103630.00
2019-02-23T23:21:06.549Z,103636.00
2019-02-23T23:23:36.013Z,103645.00
2019-02-23T23:26:11.696Z,103638.00
2019-02-23T23:28:41.061Z,103632.00
2019-02-23T23:31:10.784Z,103637.00
2019-02-23T23:33:40.154Z,103626.00
2019-02-23T23:36:12.383Z,103625.00
2019-02-23T23:38:44.784Z,103632.00
2019-02-23T23:41:14.165Z,103635.00
2019-02-23T23:43:43.514Z,103631.00
2019-02-23T23:46:12.920Z,103625.00
2019-02-23T23:48:46.729Z,103628.00
2019-02-23T23:51:17.259Z,103629.00
2019-02-23T23:53:46.651Z,103628.00
2019-02-23T23:56:16.022Z,103624.00
2019-02-23T23:58:45.395Z,103631.00
